Camden, Michigan
Current Conditions -  °F | °C
As of 8:35 PM on Friday 19 Dec 2014 (Local Time) from KJYM Reporting Station
Broken Clouds Broken Clouds  
Wind Chill: 24°   Ceiling: 1800
Heat Index: 29°   Visibility: 10mi
Dew Point: 24°   Wind: 5mph
Humidity: 80%   Direction: 70°ENE
Pressure: 30.24"   Gusts: NA
Location:  41.75°N, 84.76°W
Report Text: KJYM 200135Z AUTO 07004KT 10SM BKN018 M02/M05 A3024 RMK AO2 T10171047
Loading
Personal Weather Stations






























Interactive Weather Map New forecast layout! Learn more

10-Day Weather Forecast

Advertisements
Track Severe Weather on mobile